Terminal Aerodrome Forecast
Issued by NWS

Home | Current Version | Previous Version | Text Only | Print | Product List | Glossary On
Versions: 1 2 3 4 5 6 7 8 9 10 11 12 13 14 15 16 17 18 19
000
FTUS46 KEKA 182343
TAFCEC
TAF
KCEC 182343Z 1900/1924 36014G22KT 6SM HZ FEW008
     FM190300 36010KT 6SM HZ FEW008
     FM190600 VRB04KT P6SM SKC
      TEMPO 1910/1914 3SM BR
     FM191600 01006KT P6SM SKC
     FM192100 24008KT P6SM SKC=

USA.gov is the U.S. government's official web portal to all federal, state and local government web resources and services.